sensor_id;sensor_type;location;lat;lon;timestamp;P1;durP1;ratioP1;P2;durP2;ratioP2
17340;SDS011;8788;49.930;8.660;2023-08-20T00:01:05;7.10;;;5.20;;
17340;SDS011;8788;49.930;8.660;2023-08-20T00:03:35;6.68;;;5.00;;
17340;SDS011;8788;49.930;8.660;2023-08-20T00:06:03;7.65;;;5.22;;
17340;SDS011;8788;49.930;8.660;2023-08-20T00:08:30;8.07;;;5.10;;
17340;SDS011;8788;49.930;8.660;2023-08-20T00:10:57;7.80;;;4.70;;
17340;SDS011;8788;49.930;8.660;2023-08-20T00:13:24;10.82;;;5.05;;
17340;SDS011;8788;49.930;8.660;2023-08-20T00:15:53;9.20;;;4.75;;
17340;SDS011;8788;49.930;8.660;2023-08-20T00:18:20;8.52;;;4.70;;
17340;SDS011;8788;49.930;8.660;2023-08-20T00:20:48;8.02;;;4.75;;
17340;SDS011;8788;49.930;8.660;2023-08-20T00:23:16;6.47;;;4.97;;
17340;SDS011;8788;49.930;8.660;2023-08-20T00:25:43;7.65;;;5.20;;
17340;SDS011;8788;49.930;8.660;2023-08-20T00:28:11;9.77;;;4.55;;
17340;SDS011;8788;49.930;8.660;2023-08-20T00:30:38;6.22;;;5.00;;
17340;SDS011;8788;49.930;8.660;2023-08-20T00:33:06;7.65;;;4.47;;
17340;SDS011;8788;49.930;8.660;2023-08-20T00:35:33;8.10;;;4.72;;
17340;SDS011;8788;49.930;8.660;2023-08-20T00:38:00;8.10;;;4.75;;
17340;SDS011;8788;49.930;8.660;2023-08-20T00:40:28;10.57;;;4.88;;
17340;SDS011;8788;49.930;8.660;2023-08-20T00:42:57;13.10;;;5.30;;
17340;SDS011;8788;49.930;8.660;2023-08-20T00:45:24;5.25;;;4.75;;
17340;SDS011;8788;49.930;8.660;2023-08-20T00:47:52;8.05;;;5.18;;
17340;SDS011;8788;49.930;8.660;2023-08-20T00:50:21;9.20;;;4.78;;
17340;SDS011;8788;49.930;8.660;2023-08-20T00:52:48;5.10;;;4.32;;
17340;SDS011;8788;49.930;8.660;2023-08-20T00:55:16;8.00;;;5.05;;
17340;SDS011;8788;49.930;8.660;2023-08-20T00:57:43;6.80;;;5.38;;
17340;SDS011;8788;49.930;8.660;2023-08-20T01:00:11;8.77;;;5.40;;
17340;SDS011;8788;49.930;8.660;2023-08-20T01:02:39;7.63;;;4.90;;
17340;SDS011;8788;49.930;8.660;2023-08-20T01:05:07;14.05;;;6.07;;
17340;SDS011;8788;49.930;8.660;2023-08-20T01:07:40;10.43;;;5.18;;
17340;SDS011;8788;49.930;8.660;2023-08-20T01:10:19;6.93;;;5.13;;
17340;SDS011;8788;49.930;8.660;2023-08-20T01:12:53;8.85;;;5.88;;
17340;SDS011;8788;49.930;8.660;2023-08-20T01:15:21;8.90;;;5.28;;
17340;SDS011;8788;49.930;8.660;2023-08-20T01:17:48;8.77;;;5.03;;
17340;SDS011;8788;49.930;8.660;2023-08-20T01:20:15;9.82;;;5.10;;
17340;SDS011;8788;49.930;8.660;2023-08-20T01:25:57;9.93;;;5.35;;
17340;SDS011;8788;49.930;8.660;2023-08-20T01:28:35;12.20;;;5.13;;
17340;SDS011;8788;49.930;8.660;2023-08-20T01:31:04;7.78;;;4.72;;
17340;SDS011;8788;49.930;8.660;2023-08-20T01:33:32;9.30;;;5.07;;
17340;SDS011;8788;49.930;8.660;2023-08-20T01:35:59;8.88;;;5.00;;
17340;SDS011;8788;49.930;8.660;2023-08-20T01:38:26;12.38;;;5.53;;
17340;SDS011;8788;49.930;8.660;2023-08-20T01:40:54;11.88;;;4.85;;
17340;SDS011;8788;49.930;8.660;2023-08-20T01:43:21;9.10;;;5.15;;
17340;SDS011;8788;49.930;8.660;2023-08-20T01:45:50;8.88;;;5.00;;
17340;SDS011;8788;49.930;8.660;2023-08-20T01:48:17;8.68;;;5.10;;
17340;SDS011;8788;49.930;8.660;2023-08-20T01:50:44;15.38;;;5.13;;
17340;SDS011;8788;49.930;8.660;2023-08-20T01:53:11;7.10;;;4.75;;
17340;SDS011;8788;49.930;8.660;2023-08-20T01:55:38;8.75;;;4.80;;
17340;SDS011;8788;49.930;8.660;2023-08-20T01:58:05;5.30;;;4.78;;
17340;SDS011;8788;49.930;8.660;2023-08-20T02:00:32;7.95;;;5.35;;
17340;SDS011;8788;49.930;8.660;2023-08-20T02:03:01;9.45;;;5.10;;
17340;SDS011;8788;49.930;8.660;2023-08-20T02:05:29;7.95;;;5.75;;
17340;SDS011;8788;49.930;8.660;2023-08-20T02:07:56;10.25;;;5.88;;
17340;SDS011;8788;49.930;8.660;2023-08-20T02:10:23;12.45;;;5.93;;
17340;SDS011;8788;49.930;8.660;2023-08-20T02:12:50;12.88;;;5.35;;
17340;SDS011;8788;49.930;8.660;2023-08-20T02:15:17;6.55;;;4.80;;
17340;SDS011;8788;49.930;8.660;2023-08-20T02:17:44;8.48;;;5.40;;
17340;SDS011;8788;49.930;8.660;2023-08-20T02:20:13;8.00;;;5.68;;
17340;SDS011;8788;49.930;8.660;2023-08-20T02:22:40;6.03;;;4.55;;
17340;SDS011;8788;49.930;8.660;2023-08-20T02:25:08;7.72;;;5.30;;
17340;SDS011;8788;49.930;8.660;2023-08-20T02:27:35;9.98;;;5.63;;
17340;SDS011;8788;49.930;8.660;2023-08-20T02:30:02;8.82;;;5.70;;
17340;SDS011;8788;49.930;8.660;2023-08-20T02:32:29;9.20;;;4.80;;
17340;SDS011;8788;49.930;8.660;2023-08-20T02:34:58;11.48;;;5.10;;
17340;SDS011;8788;49.930;8.660;2023-08-20T02:37:27;7.53;;;5.20;;
17340;SDS011;8788;49.930;8.660;2023-08-20T02:39:55;8.60;;;5.75;;
17340;SDS011;8788;49.930;8.660;2023-08-20T02:42:22;9.10;;;5.78;;
17340;SDS011;8788;49.930;8.660;2023-08-20T02:44:49;9.10;;;5.50;;
17340;SDS011;8788;49.930;8.660;2023-08-20T02:47:17;7.57;;;4.95;;
17340;SDS011;8788;49.930;8.660;2023-08-20T02:49:44;5.30;;;4.30;;
17340;SDS011;8788;49.930;8.660;2023-08-20T02:52:11;8.57;;;5.15;;
17340;SDS011;8788;49.930;8.660;2023-08-20T02:54:39;11.68;;;5.00;;
17340;SDS011;8788;49.930;8.660;2023-08-20T02:57:06;9.15;;;5.05;;
17340;SDS011;8788;49.930;8.660;2023-08-20T02:59:33;7.13;;;5.28;;
17340;SDS011;8788;49.930;8.660;2023-08-20T03:02:01;6.68;;;5.38;;
17340;SDS011;8788;49.930;8.660;2023-08-20T03:04:28;8.63;;;4.97;;
17340;SDS011;8788;49.930;8.660;2023-08-20T03:06:55;5.32;;;4.82;;
17340;SDS011;8788;49.930;8.660;2023-08-20T03:09:22;10.30;;;4.90;;
17340;SDS011;8788;49.930;8.660;2023-08-20T03:11:51;8.32;;;5.20;;
17340;SDS011;8788;49.930;8.660;2023-08-20T03:14:18;10.43;;;4.72;;
17340;SDS011;8788;49.930;8.660;2023-08-20T03:16:45;8.05;;;6.00;;
17340;SDS011;8788;49.930;8.660;2023-08-20T03:19:14;10.63;;;5.85;;
17340;SDS011;8788;49.930;8.660;2023-08-20T03:21:41;6.15;;;5.65;;
17340;SDS011;8788;49.930;8.660;2023-08-20T03:24:08;6.15;;;5.53;;
17340;SDS011;8788;49.930;8.660;2023-08-20T03:26:35;6.22;;;5.20;;
17340;SDS011;8788;49.930;8.660;2023-08-20T03:29:04;10.65;;;6.05;;
17340;SDS011;8788;49.930;8.660;2023-08-20T03:31:31;9.13;;;5.10;;
17340;SDS011;8788;49.930;8.660;2023-08-20T03:33:58;11.48;;;5.40;;
17340;SDS011;8788;49.930;8.660;2023-08-20T03:36:25;14.20;;;5.68;;
17340;SDS011;8788;49.930;8.660;2023-08-20T03:38:55;9.77;;;5.75;;
17340;SDS011;8788;49.930;8.660;2023-08-20T03:41:22;11.70;;;5.65;;
17340;SDS011;8788;49.930;8.660;2023-08-20T03:43:49;9.45;;;5.40;;
17340;SDS011;8788;49.930;8.660;2023-08-20T03:46:17;10.32;;;5.00;;
17340;SDS011;8788;49.930;8.660;2023-08-20T03:48:44;7.50;;;4.68;;
17340;SDS011;8788;49.930;8.660;2023-08-20T03:51:12;10.85;;;4.93;;
17340;SDS011;8788;49.930;8.660;2023-08-20T03:53:40;12.88;;;5.43;;
17340;SDS011;8788;49.930;8.660;2023-08-20T03:56:07;7.88;;;5.55;;
17340;SDS011;8788;49.930;8.660;2023-08-20T03:58:34;6.25;;;5.60;;
17340;SDS011;8788;49.930;8.660;2023-08-20T04:01:01;11.65;;;7.13;;
17340;SDS011;8788;49.930;8.660;2023-08-20T04:03:31;8.57;;;5.68;;
17340;SDS011;8788;49.930;8.660;2023-08-20T04:05:58;9.90;;;5.70;;
17340;SDS011;8788;49.930;8.660;2023-08-20T04:08:25;9.45;;;5.55;;
17340;SDS011;8788;49.930;8.660;2023-08-20T04:10:52;7.82;;;5.53;;
17340;SDS011;8788;49.930;8.660;2023-08-20T04:13:19;8.88;;;5.97;;
17340;SDS011;8788;49.930;8.660;2023-08-20T04:15:47;6.68;;;5.75;;
17340;SDS011;8788;49.930;8.660;2023-08-20T04:18:14;8.23;;;5.95;;
17340;SDS011;8788;49.930;8.660;2023-08-20T04:20:42;10.82;;;5.75;;
17340;SDS011;8788;49.930;8.660;2023-08-20T04:23:09;8.60;;;5.32;;
17340;SDS011;8788;49.930;8.660;2023-08-20T04:25:36;7.18;;;5.38;;
17340;SDS011;8788;49.930;8.660;2023-08-20T04:28:03;6.35;;;5.68;;
17340;SDS011;8788;49.930;8.660;2023-08-20T04:30:31;7.60;;;5.15;;
17340;SDS011;8788;49.930;8.660;2023-08-20T04:32:58;9.80;;;5.40;;
17340;SDS011;8788;49.930;8.660;2023-08-20T04:35:26;7.60;;;5.95;;
17340;SDS011;8788;49.930;8.660;2023-08-20T04:37:54;6.82;;;5.43;;
17340;SDS011;8788;49.930;8.660;2023-08-20T04:40:22;8.35;;;5.80;;
17340;SDS011;8788;49.930;8.660;2023-08-20T04:42:50;7.18;;;5.32;;
17340;SDS011;8788;49.930;8.660;2023-08-20T04:45:18;8.32;;;6.13;;
17340;SDS011;8788;49.930;8.660;2023-08-20T04:47:46;8.55;;;6.15;;
17340;SDS011;8788;49.930;8.660;2023-08-20T04:50:14;7.32;;;5.57;;
17340;SDS011;8788;49.930;8.660;2023-08-20T04:52:41;6.20;;;5.40;;
17340;SDS011;8788;49.930;8.660;2023-08-20T04:55:09;7.57;;;5.03;;
17340;SDS011;8788;49.930;8.660;2023-08-20T04:57:37;7.20;;;4.95;;
17340;SDS011;8788;49.930;8.660;2023-08-20T05:00:05;9.70;;;5.65;;
17340;SDS011;8788;49.930;8.660;2023-08-20T05:02:43;5.15;;;4.65;;
17340;SDS011;8788;49.930;8.660;2023-08-20T05:05:13;6.22;;;5.57;;
17340;SDS011;8788;49.930;8.660;2023-08-20T05:07:41;9.15;;;6.20;;
17340;SDS011;8788;49.930;8.660;2023-08-20T05:10:08;11.13;;;6.07;;
17340;SDS011;8788;49.930;8.660;2023-08-20T05:12:36;8.75;;;6.05;;
17340;SDS011;8788;49.930;8.660;2023-08-20T05:15:04;9.32;;;5.85;;
17340;SDS011;8788;49.930;8.660;2023-08-20T05:17:31;10.35;;;6.10;;
17340;SDS011;8788;49.930;8.660;2023-08-20T05:19:59;12.10;;;6.15;;
17340;SDS011;8788;49.930;8.660;2023-08-20T05:22:26;10.82;;;6.45;;
17340;SDS011;8788;49.930;8.660;2023-08-20T05:24:53;12.60;;;7.00;;
17340;SDS011;8788;49.930;8.660;2023-08-20T05:27:21;8.68;;;5.63;;
17340;SDS011;8788;49.930;8.660;2023-08-20T05:29:50;10.60;;;7.00;;
17340;SDS011;8788;49.930;8.660;2023-08-20T05:32:19;12.07;;;6.07;;
17340;SDS011;8788;49.930;8.660;2023-08-20T05:34:46;6.50;;;5.68;;
17340;SDS011;8788;49.930;8.660;2023-08-20T05:37:13;6.65;;;5.45;;
17340;SDS011;8788;49.930;8.660;2023-08-20T05:39:41;7.68;;;5.97;;
17340;SDS011;8788;49.930;8.660;2023-08-20T05:42:09;8.45;;;6.40;;
17340;SDS011;8788;49.930;8.660;2023-08-20T05:44:40;7.78;;;5.93;;
17340;SDS011;8788;49.930;8.660;2023-08-20T05:47:11;11.27;;;5.90;;
17340;SDS011;8788;49.930;8.660;2023-08-20T05:49:38;10.18;;;5.40;;
17340;SDS011;8788;49.930;8.660;2023-08-20T05:52:05;10.05;;;5.70;;
17340;SDS011;8788;49.930;8.660;2023-08-20T05:54:33;7.28;;;5.70;;
17340;SDS011;8788;49.930;8.660;2023-08-20T05:57:00;7.78;;;6.30;;
17340;SDS011;8788;49.930;8.660;2023-08-20T05:59:28;7.70;;;6.70;;
17340;SDS011;8788;49.930;8.660;2023-08-20T06:01:56;16.25;;;7.70;;
17340;SDS011;8788;49.930;8.660;2023-08-20T06:04:23;7.45;;;6.72;;
17340;SDS011;8788;49.930;8.660;2023-08-20T06:06:50;7.90;;;6.43;;
17340;SDS011;8788;49.930;8.660;2023-08-20T06:09:17;9.98;;;7.15;;
17340;SDS011;8788;49.930;8.660;2023-08-20T06:11:45;9.15;;;7.25;;
17340;SDS011;8788;49.930;8.660;2023-08-20T06:14:12;7.22;;;6.63;;
17340;SDS011;8788;49.930;8.660;2023-08-20T06:16:39;8.77;;;6.90;;
17340;SDS011;8788;49.930;8.660;2023-08-20T06:19:07;6.90;;;6.30;;
17340;SDS011;8788;49.930;8.660;2023-08-20T06:21:34;8.23;;;7.43;;
17340;SDS011;8788;49.930;8.660;2023-08-20T06:24:01;8.15;;;6.55;;
17340;SDS011;8788;49.930;8.660;2023-08-20T06:26:29;7.25;;;6.60;;
17340;SDS011;8788;49.930;8.660;2023-08-20T06:28:56;7.53;;;6.82;;
17340;SDS011;8788;49.930;8.660;2023-08-20T06:31:23;12.93;;;7.25;;
17340;SDS011;8788;49.930;8.660;2023-08-20T06:33:50;7.25;;;6.55;;
17340;SDS011;8788;49.930;8.660;2023-08-20T06:36:19;7.50;;;6.80;;
17340;SDS011;8788;49.930;8.660;2023-08-20T06:38:46;8.10;;;7.15;;
17340;SDS011;8788;49.930;8.660;2023-08-20T06:41:13;9.60;;;7.20;;
17340;SDS011;8788;49.930;8.660;2023-08-20T06:43:40;8.18;;;6.90;;
17340;SDS011;8788;49.930;8.660;2023-08-20T06:46:07;8.73;;;6.20;;
17340;SDS011;8788;49.930;8.660;2023-08-20T06:48:34;9.45;;;6.78;;
17340;SDS011;8788;49.930;8.660;2023-08-20T06:51:07;7.68;;;6.20;;
17340;SDS011;8788;49.930;8.660;2023-08-20T06:53:38;9.25;;;6.40;;
17340;SDS011;8788;49.930;8.660;2023-08-20T06:56:06;7.85;;;6.10;;
17340;SDS011;8788;49.930;8.660;2023-08-20T06:58:33;6.85;;;6.15;;
17340;SDS011;8788;49.930;8.660;2023-08-20T07:01:00;7.32;;;6.63;;
17340;SDS011;8788;49.930;8.660;2023-08-20T07:03:33;9.15;;;6.82;;
17340;SDS011;8788;49.930;8.660;2023-08-20T07:06:01;7.25;;;6.55;;
17340;SDS011;8788;49.930;8.660;2023-08-20T07:08:28;8.82;;;6.97;;
17340;SDS011;8788;49.930;8.660;2023-08-20T07:10:57;8.82;;;6.70;;
17340;SDS011;8788;49.930;8.660;2023-08-20T07:13:24;14.38;;;6.82;;
17340;SDS011;8788;49.930;8.660;2023-08-20T07:15:51;9.20;;;6.55;;
17340;SDS011;8788;49.930;8.660;2023-08-20T07:18:18;8.52;;;6.25;;
17340;SDS011;8788;49.930;8.660;2023-08-20T07:20:45;6.95;;;6.05;;
17340;SDS011;8788;49.930;8.660;2023-08-20T07:23:12;6.55;;;5.95;;
17340;SDS011;8788;49.930;8.660;2023-08-20T07:25:40;6.50;;;5.90;;
17340;SDS011;8788;49.930;8.660;2023-08-20T07:28:09;9.88;;;6.35;;
17340;SDS011;8788;49.930;8.660;2023-08-20T07:30:36;10.43;;;6.35;;
17340;SDS011;8788;49.930;8.660;2023-08-20T07:33:04;7.95;;;6.22;;
17340;SDS011;8788;49.930;8.660;2023-08-20T07:35:32;7.45;;;5.95;;
17340;SDS011;8788;49.930;8.660;2023-08-20T07:38:00;6.32;;;5.75;;
17340;SDS011;8788;49.930;8.660;2023-08-20T07:40:27;9.82;;;6.30;;
17340;SDS011;8788;49.930;8.660;2023-08-20T07:42:54;9.18;;;5.32;;
17340;SDS011;8788;49.930;8.660;2023-08-20T07:45:23;7.07;;;6.28;;
17340;SDS011;8788;49.930;8.660;2023-08-20T07:47:51;10.55;;;6.30;;
17340;SDS011;8788;49.930;8.660;2023-08-20T07:50:18;8.77;;;6.00;;
17340;SDS011;8788;49.930;8.660;2023-08-20T07:52:45;6.35;;;5.85;;
17340;SDS011;8788;49.930;8.660;2023-08-20T07:55:12;6.32;;;5.50;;
17340;SDS011;8788;49.930;8.660;2023-08-20T07:57:39;8.10;;;6.28;;
17340;SDS011;8788;49.930;8.660;2023-08-20T08:00:06;6.30;;;5.70;;
17340;SDS011;8788;49.930;8.660;2023-08-20T08:02:38;7.55;;;5.68;;
17340;SDS011;8788;49.930;8.660;2023-08-20T08:05:05;7.68;;;6.40;;
17340;SDS011;8788;49.930;8.660;2023-08-20T08:07:33;10.93;;;7.07;;
17340;SDS011;8788;49.930;8.660;2023-08-20T08:10:00;6.32;;;5.78;;
17340;SDS011;8788;49.930;8.660;2023-08-20T08:12:27;5.60;;;5.10;;
17340;SDS011;8788;49.930;8.660;2023-08-20T08:14:54;7.07;;;5.93;;
17340;SDS011;8788;49.930;8.660;2023-08-20T08:17:21;6.38;;;5.78;;
17340;SDS011;8788;49.930;8.660;2023-08-20T08:19:49;6.53;;;5.93;;
17340;SDS011;8788;49.930;8.660;2023-08-20T08:22:19;6.60;;;5.85;;
17340;SDS011;8788;49.930;8.660;2023-08-20T08:24:46;6.65;;;6.05;;
17340;SDS011;8788;49.930;8.660;2023-08-20T08:27:13;6.97;;;5.53;;
17340;SDS011;8788;49.930;8.660;2023-08-20T08:29:40;6.40;;;5.38;;
17340;SDS011;8788;49.930;8.660;2023-08-20T08:32:07;9.15;;;6.18;;
17340;SDS011;8788;49.930;8.660;2023-08-20T08:34:34;7.00;;;5.18;;
17340;SDS011;8788;49.930;8.660;2023-08-20T08:37:02;6.38;;;5.78;;
17340;SDS011;8788;49.930;8.660;2023-08-20T08:39:30;6.53;;;5.85;;
17340;SDS011;8788;49.930;8.660;2023-08-20T08:41:58;6.88;;;5.72;;
17340;SDS011;8788;49.930;8.660;2023-08-20T08:44:28;8.52;;;5.47;;
17340;SDS011;8788;49.930;8.660;2023-08-20T08:46:55;6.88;;;5.43;;
17340;SDS011;8788;49.930;8.660;2023-08-20T08:49:22;6.00;;;5.40;;
17340;SDS011;8788;49.930;8.660;2023-08-20T08:51:49;6.80;;;5.30;;
17340;SDS011;8788;49.930;8.660;2023-08-20T08:54:19;6.90;;;5.35;;
17340;SDS011;8788;49.930;8.660;2023-08-20T08:56:47;5.72;;;5.20;;
17340;SDS011;8788;49.930;8.660;2023-08-20T08:59:14;5.85;;;5.18;;
17340;SDS011;8788;49.930;8.660;2023-08-20T09:01:41;6.03;;;5.40;;
17340;SDS011;8788;49.930;8.660;2023-08-20T09:04:08;5.72;;;5.32;;
17340;SDS011;8788;49.930;8.660;2023-08-20T09:06:45;5.90;;;5.25;;
17340;SDS011;8788;49.930;8.660;2023-08-20T09:09:12;6.13;;;5.43;;
17340;SDS011;8788;49.930;8.660;2023-08-20T09:11:41;7.10;;;5.60;;
17340;SDS011;8788;49.930;8.660;2023-08-20T09:14:09;8.27;;;5.78;;
17340;SDS011;8788;49.930;8.660;2023-08-20T09:16:53;10.38;;;5.63;;
17340;SDS011;8788;49.930;8.660;2023-08-20T09:19:21;8.13;;;5.50;;
17340;SDS011;8788;49.930;8.660;2023-08-20T09:21:48;9.98;;;5.47;;
17340;SDS011;8788;49.930;8.660;2023-08-20T09:24:25;6.15;;;5.50;;
17340;SDS011;8788;49.930;8.660;2023-08-20T09:26:57;6.80;;;5.40;;
17340;SDS011;8788;49.930;8.660;2023-08-20T09:29:25;8.52;;;5.35;;
17340;SDS011;8788;49.930;8.660;2023-08-20T09:31:59;6.00;;;5.35;;
17340;SDS011;8788;49.930;8.660;2023-08-20T09:34:35;5.55;;;4.93;;
17340;SDS011;8788;49.930;8.660;2023-08-20T09:37:04;6.28;;;5.32;;
17340;SDS011;8788;49.930;8.660;2023-08-20T09:39:33;5.95;;;5.30;;
17340;SDS011;8788;49.930;8.660;2023-08-20T09:42:02;5.63;;;4.82;;
17340;SDS011;8788;49.930;8.660;2023-08-20T09:44:32;5.28;;;4.88;;
17340;SDS011;8788;49.930;8.660;2023-08-20T09:47:01;7.05;;;4.80;;
17340;SDS011;8788;49.930;8.660;2023-08-20T09:49:35;5.30;;;4.80;;
17340;SDS011;8788;49.930;8.660;2023-08-20T09:52:04;7.25;;;5.45;;
17340;SDS011;8788;49.930;8.660;2023-08-20T09:54:35;7.43;;;5.40;;
17340;SDS011;8788;49.930;8.660;2023-08-20T09:57:18;5.82;;;5.22;;
17340;SDS011;8788;49.930;8.660;2023-08-20T09:59:53;5.47;;;4.97;;
17340;SDS011;8788;49.930;8.660;2023-08-20T10:02:20;5.25;;;4.75;;
17340;SDS011;8788;49.930;8.660;2023-08-20T10:04:47;6.30;;;4.28;;
17340;SDS011;8788;49.930;8.660;2023-08-20T10:07:16;5.38;;;4.28;;
17340;SDS011;8788;49.930;8.660;2023-08-20T10:09:44;5.28;;;4.78;;
17340;SDS011;8788;49.930;8.660;2023-08-20T10:12:12;6.00;;;4.85;;
17340;SDS011;8788;49.930;8.660;2023-08-20T10:14:41;5.60;;;4.40;;
17340;SDS011;8788;49.930;8.660;2023-08-20T10:17:09;7.82;;;4.80;;
17340;SDS011;8788;49.930;8.660;2023-08-20T10:19:38;6.38;;;5.63;;
17340;SDS011;8788;49.930;8.660;2023-08-20T10:22:06;6.07;;;4.97;;
17340;SDS011;8788;49.930;8.660;2023-08-20T10:24:40;5.82;;;4.75;;
17340;SDS011;8788;49.930;8.660;2023-08-20T10:27:08;5.15;;;4.72;;
17340;SDS011;8788;49.930;8.660;2023-08-20T10:29:37;7.88;;;5.20;;
17340;SDS011;8788;49.930;8.660;2023-08-20T10:32:08;4.80;;;4.40;;
17340;SDS011;8788;49.930;8.660;2023-08-20T10:34:37;5.60;;;4.60;;
17340;SDS011;8788;49.930;8.660;2023-08-20T10:37:12;4.90;;;4.50;;
17340;SDS011;8788;49.930;8.660;2023-08-20T10:39:39;4.50;;;4.07;;
17340;SDS011;8788;49.930;8.660;2023-08-20T10:42:08;4.72;;;4.13;;
17340;SDS011;8788;49.930;8.660;2023-08-20T10:47:24;4.07;;;3.70;;
17340;SDS011;8788;49.930;8.660;2023-08-20T10:49:52;6.30;;;4.10;;
17340;SDS011;8788;49.930;8.660;2023-08-20T10:52:20;4.75;;;3.75;;
17340;SDS011;8788;49.930;8.660;2023-08-20T10:54:49;4.50;;;4.10;;
17340;SDS011;8788;49.930;8.660;2023-08-20T10:57:17;3.90;;;3.60;;
17340;SDS011;8788;49.930;8.660;2023-08-20T10:59:55;4.78;;;3.50;;
17340;SDS011;8788;49.930;8.660;2023-08-20T11:02:25;5.75;;;3.58;;
17340;SDS011;8788;49.930;8.660;2023-08-20T11:04:54;4.78;;;3.70;;
17340;SDS011;8788;49.930;8.660;2023-08-20T11:07:21;5.18;;;4.75;;
17340;SDS011;8788;49.930;8.660;2023-08-20T11:09:50;4.10;;;3.70;;
17340;SDS011;8788;49.930;8.660;2023-08-20T11:12:19;6.20;;;3.92;;
17340;SDS011;8788;49.930;8.660;2023-08-20T11:14:47;4.45;;;4.15;;
17340;SDS011;8788;49.930;8.660;2023-08-20T11:17:14;4.43;;;3.80;;
17340;SDS011;8788;49.930;8.660;2023-08-20T11:19:43;3.67;;;3.38;;
17340;SDS011;8788;49.930;8.660;2023-08-20T11:22:10;6.47;;;3.75;;
17340;SDS011;8788;49.930;8.660;2023-08-20T11:24:41;5.13;;;3.58;;
17340;SDS011;8788;49.930;8.660;2023-08-20T11:27:09;5.82;;;3.78;;
17340;SDS011;8788;49.930;8.660;2023-08-20T11:29:36;3.67;;;3.38;;
17340;SDS011;8788;49.930;8.660;2023-08-20T11:32:03;4.63;;;4.18;;
17340;SDS011;8788;49.930;8.660;2023-08-20T11:34:31;5.90;;;3.45;;
17340;SDS011;8788;49.930;8.660;2023-08-20T11:36:59;4.43;;;4.03;;
17340;SDS011;8788;49.930;8.660;2023-08-20T11:39:28;3.63;;;3.25;;
17340;SDS011;8788;49.930;8.660;2023-08-20T11:41:55;4.43;;;3.47;;
17340;SDS011;8788;49.930;8.660;2023-08-20T11:44:24;5.40;;;3.65;;
17340;SDS011;8788;49.930;8.660;2023-08-20T11:46:51;4.05;;;3.60;;
17340;SDS011;8788;49.930;8.660;2023-08-20T11:49:26;5.55;;;3.42;;
17340;SDS011;8788;49.930;8.660;2023-08-20T11:51:55;4.72;;;3.45;;
17340;SDS011;8788;49.930;8.660;2023-08-20T11:54:24;3.80;;;3.30;;
17340;SDS011;8788;49.930;8.660;2023-08-20T11:56:52;4.85;;;3.20;;
17340;SDS011;8788;49.930;8.660;2023-08-20T11:59:27;4.68;;;3.75;;
17340;SDS011;8788;49.930;8.660;2023-08-20T12:01:56;3.80;;;3.40;;
17340;SDS011;8788;49.930;8.660;2023-08-20T12:04:24;4.80;;;3.92;;
17340;SDS011;8788;49.930;8.660;2023-08-20T12:07:01;3.67;;;3.35;;
17340;SDS011;8788;49.930;8.660;2023-08-20T12:09:31;4.88;;;3.45;;
17340;SDS011;8788;49.930;8.660;2023-08-20T12:11:59;3.70;;;3.40;;
17340;SDS011;8788;49.930;8.660;2023-08-20T12:14:27;5.18;;;4.00;;
17340;SDS011;8788;49.930;8.660;2023-08-20T12:16:54;3.90;;;3.40;;
17340;SDS011;8788;49.930;8.660;2023-08-20T12:19:21;3.67;;;3.17;;
17340;SDS011;8788;49.930;8.660;2023-08-20T12:21:49;4.35;;;3.15;;
17340;SDS011;8788;49.930;8.660;2023-08-20T12:24:16;3.55;;;3.30;;
17340;SDS011;8788;49.930;8.660;2023-08-20T12:26:45;3.95;;;3.65;;
17340;SDS011;8788;49.930;8.660;2023-08-20T12:29:12;6.03;;;3.92;;
17340;SDS011;8788;49.930;8.660;2023-08-20T12:31:40;6.70;;;3.72;;
17340;SDS011;8788;49.930;8.660;2023-08-20T12:34:07;3.50;;;3.30;;
17340;SDS011;8788;49.930;8.660;2023-08-20T12:36:34;8.18;;;3.80;;
17340;SDS011;8788;49.930;8.660;2023-08-20T12:39:02;5.80;;;3.58;;
17340;SDS011;8788;49.930;8.660;2023-08-20T12:41:30;5.32;;;3.67;;
17340;SDS011;8788;49.930;8.660;2023-08-20T12:43:58;7.53;;;3.75;;
17340;SDS011;8788;49.930;8.660;2023-08-20T12:46:25;5.22;;;3.83;;
17340;SDS011;8788;49.930;8.660;2023-08-20T12:48:52;6.85;;;4.05;;
17340;SDS011;8788;49.930;8.660;2023-08-20T12:51:19;5.57;;;3.83;;
17340;SDS011;8788;49.930;8.660;2023-08-20T12:53:47;3.53;;;3.17;;
17340;SDS011;8788;49.930;8.660;2023-08-20T12:56:14;5.03;;;3.30;;
17340;SDS011;8788;49.930;8.660;2023-08-20T12:58:42;3.95;;;2.90;;
17340;SDS011;8788;49.930;8.660;2023-08-20T13:01:10;5.47;;;3.60;;
17340;SDS011;8788;49.930;8.660;2023-08-20T13:03:37;4.97;;;2.97;;
17340;SDS011;8788;49.930;8.660;2023-08-20T13:06:05;5.07;;;3.30;;
17340;SDS011;8788;49.930;8.660;2023-08-20T13:08:33;6.40;;;3.58;;
17340;SDS011;8788;49.930;8.660;2023-08-20T13:11:00;6.03;;;3.13;;
17340;SDS011;8788;49.930;8.660;2023-08-20T13:13:29;3.05;;;2.85;;
17340;SDS011;8788;49.930;8.660;2023-08-20T13:15:59;4.80;;;3.05;;
17340;SDS011;8788;49.930;8.660;2023-08-20T13:18:29;5.00;;;3.42;;
17340;SDS011;8788;49.930;8.660;2023-08-20T13:20:56;5.40;;;3.10;;
17340;SDS011;8788;49.930;8.660;2023-08-20T13:23:23;4.70;;;3.08;;
17340;SDS011;8788;49.930;8.660;2023-08-20T13:25:50;6.55;;;3.50;;
17340;SDS011;8788;49.930;8.660;2023-08-20T13:28:18;4.32;;;3.53;;
17340;SDS011;8788;49.930;8.660;2023-08-20T13:30:45;4.28;;;3.88;;
17340;SDS011;8788;49.930;8.660;2023-08-20T13:33:12;5.13;;;3.65;;
17340;SDS011;8788;49.930;8.660;2023-08-20T13:35:40;4.80;;;3.75;;
17340;SDS011;8788;49.930;8.660;2023-08-20T13:38:07;3.67;;;3.38;;
17340;SDS011;8788;49.930;8.660;2023-08-20T13:40:35;3.85;;;3.35;;
17340;SDS011;8788;49.930;8.660;2023-08-20T13:43:02;6.90;;;4.00;;
17340;SDS011;8788;49.930;8.660;2023-08-20T13:45:29;6.13;;;3.90;;
17340;SDS011;8788;49.930;8.660;2023-08-20T13:47:57;4.32;;;3.40;;
17340;SDS011;8788;49.930;8.660;2023-08-20T13:50:24;4.05;;;3.67;;
17340;SDS011;8788;49.930;8.660;2023-08-20T13:52:52;4.13;;;3.38;;
17340;SDS011;8788;49.930;8.660;2023-08-20T13:55:20;3.90;;;3.42;;
17340;SDS011;8788;49.930;8.660;2023-08-20T13:57:47;4.53;;;3.25;;
17340;SDS011;8788;49.930;8.660;2023-08-20T14:00:14;7.00;;;3.10;;
17340;SDS011;8788;49.930;8.660;2023-08-20T14:02:42;4.72;;;3.22;;
17340;SDS011;8788;49.930;8.660;2023-08-20T14:05:09;3.47;;;3.10;;
17340;SDS011;8788;49.930;8.660;2023-08-20T14:07:36;3.80;;;3.05;;
17340;SDS011;8788;49.930;8.660;2023-08-20T14:10:05;5.90;;;3.03;;
17340;SDS011;8788;49.930;8.660;2023-08-20T14:12:33;3.10;;;2.90;;
17340;SDS011;8788;49.930;8.660;2023-08-20T14:15:01;4.00;;;2.63;;
17340;SDS011;8788;49.930;8.660;2023-08-20T14:17:28;2.67;;;2.47;;
17340;SDS011;8788;49.930;8.660;2023-08-20T14:19:55;2.92;;;2.55;;
17340;SDS011;8788;49.930;8.660;2023-08-20T14:22:22;3.85;;;3.50;;
17340;SDS011;8788;49.930;8.660;2023-08-20T14:24:49;5.53;;;3.42;;
17340;SDS011;8788;49.930;8.660;2023-08-20T14:27:18;3.25;;;2.95;;
17340;SDS011;8788;49.930;8.660;2023-08-20T14:29:46;3.30;;;3.00;;
17340;SDS011;8788;49.930;8.660;2023-08-20T14:32:13;5.32;;;3.38;;
17340;SDS011;8788;49.930;8.660;2023-08-20T14:34:40;4.68;;;3.00;;
17340;SDS011;8788;49.930;8.660;2023-08-20T14:37:07;3.58;;;3.28;;
17340;SDS011;8788;49.930;8.660;2023-08-20T14:39:35;3.67;;;3.30;;
17340;SDS011;8788;49.930;8.660;2023-08-20T14:42:02;5.00;;;4.00;;
17340;SDS011;8788;49.930;8.660;2023-08-20T14:44:31;4.18;;;2.92;;
17340;SDS011;8788;49.930;8.660;2023-08-20T14:46:58;3.30;;;3.05;;
17340;SDS011;8788;49.930;8.660;2023-08-20T14:49:25;5.45;;;3.45;;
17340;SDS011;8788;49.930;8.660;2023-08-20T14:51:53;3.58;;;3.28;;
17340;SDS011;8788;49.930;8.660;2023-08-20T14:54:21;3.80;;;3.40;;
17340;SDS011;8788;49.930;8.660;2023-08-20T14:56:48;3.92;;;3.58;;
17340;SDS011;8788;49.930;8.660;2023-08-20T14:59:15;4.22;;;3.72;;
17340;SDS011;8788;49.930;8.660;2023-08-20T15:01:43;5.53;;;3.47;;
17340;SDS011;8788;49.930;8.660;2023-08-20T15:04:10;7.95;;;3.25;;
17340;SDS011;8788;49.930;8.660;2023-08-20T15:06:37;3.53;;;3.22;;
17340;SDS011;8788;49.930;8.660;2023-08-20T15:09:04;6.22;;;3.50;;
17340;SDS011;8788;49.930;8.660;2023-08-20T15:11:35;4.38;;;3.30;;